Time;durP1;ratioP1;P1;durP2;ratioP2;P2;SDS_P1;SDS_P2;PMS_P1;PMS_P2;Temp;Humidity;BMP_temperature;BMP_pressure;BME280_temperature;BME280_humidity;BME280_pressure;Samples;Min_cycle;Max_cycle;Signal;HPM_P1;HPM_P2
2022/05/12 00:01:27;;;;;;;4.05;2.78;;;;;;;26.52;46.19;99820.03;5080355;28;20024;-87
2022/05/12 00:03:53;;;;;;;3.63;2.72;;;;;;;26.51;46.56;99823.69;5082781;28;20034;-86
2022/05/12 00:06:18;;;;;;;4.45;2.78;;;;;;;26.48;46.35;99823.91;5098600;28;20368;-87
2022/05/12 00:08:44;;;;;;;4.88;3.05;;;;;;;26.49;46.25;99833.63;5098180;28;20354;-85
2022/05/12 00:11:09;;;;;;;5.55;3.17;;;;;;;26.49;46.52;99836.31;5099449;28;20501;-87
2022/05/12 00:13:35;;;;;;;3.85;2.67;;;;;;;26.48;46.63;99837.28;5080535;28;20032;-85
2022/05/12 00:16:01;;;;;;;5.57;3.00;;;;;;;26.47;46.59;99840.06;5081078;28;20028;-87
2022/05/12 00:18:27;;;;;;;3.78;2.97;;;;;;;26.46;46.30;99841.06;5081379;28;20028;-85
2022/05/12 00:20:53;;;;;;;5.45;3.28;;;;;;;26.45;46.43;99850.91;5080866;28;20092;-87
2022/05/12 00:23:21;;;;;;;4.03;2.80;;;;;;;26.46;46.61;99852.63;5081286;28;20028;-87
2022/05/12 00:25:49;;;;;;;3.92;2.85;;;;;;;26.43;46.44;99858.19;5081123;28;20024;-87
2022/05/12 00:28:16;;;;;;;4.45;3.25;;;;;;;26.43;46.62;99857.34;5081760;28;20020;-87
2022/05/12 00:30:44;;;;;;;5.45;3.10;;;;;;;26.40;46.53;99853.09;5082941;28;20028;-87
2022/05/12 00:33:11;;;;;;;4.20;3.42;;;;;;;26.39;46.30;99854.06;5082377;28;20039;-86
2022/05/12 00:35:38;;;;;;;6.45;3.63;;;;;;;26.37;46.35;99853.31;5081375;28;20024;-86
2022/05/12 00:38:03;;;;;;;5.72;3.42;;;;;;;26.38;46.50;99860.38;5083002;28;20024;-86
2022/05/12 00:40:30;;;;;;;5.47;3.10;;;;;;;26.37;46.47;99858.66;5083093;28;20038;-87
2022/05/12 00:43:01;;;;;;;4.13;3.17;;;;;;;26.36;46.40;99856.97;5081660;28;20020;-86
2022/05/12 00:45:32;;;;;;;4.70;3.47;;;;;;;26.36;46.20;99851.63;5086711;28;20028;-86
2022/05/12 00:47:58;;;;;;;4.30;3.35;;;;;;;26.35;46.47;99860.63;5082801;28;20079;-88
2022/05/12 00:50:29;;;;;;;5.25;3.70;;;;;;;26.35;46.54;99853.44;5081741;28;20412;-86
2022/05/12 00:52:58;;;;;;;5.43;3.38;;;;;;;26.36;46.54;99849.81;5081657;28;20453;-88
2022/05/12 00:55:37;;;;;;;4.32;3.30;;;;;;;26.34;46.39;99853.56;5082095;28;20024;-86
2022/05/12 00:58:06;;;;;;;4.65;3.22;;;;;;;26.33;46.59;99855.38;5081535;28;20024;-87
2022/05/12 01:00:32;;;;;;;4.68;3.58;;;;;;;26.32;46.49;99861.72;5080978;28;20055;-87
2022/05/12 01:03:03;;;;;;;4.25;3.45;;;;;;;26.33;46.67;99866.09;5098664;28;20024;-86
2022/05/12 01:05:29;;;;;;;4.63;3.45;;;;;;;26.32;46.53;99866.19;5081018;28;20070;-88
2022/05/12 01:07:56;;;;;;;4.18;3.45;;;;;;;26.30;46.57;99869.03;5080882;28;20035;-86
2022/05/12 01:10:23;;;;;;;4.80;3.45;;;;;;;26.29;46.55;99869.97;5083628;28;20097;-89
2022/05/12 01:12:51;;;;;;;4.60;3.17;;;;;;;26.28;46.70;99865.59;5087287;28;20036;-88
2022/05/12 01:15:18;;;;;;;4.15;3.05;;;;;;;26.29;46.48;99861.09;5088620;28;20048;-88
2022/05/12 01:17:45;;;;;;;5.13;3.83;;;;;;;26.26;46.50;99857.69;5085952;28;20020;-87
2022/05/12 01:20:11;;;;;;;4.97;3.90;;;;;;;26.26;46.54;99846.97;5084678;28;20122;-87
2022/05/12 01:22:53;;;;;;;4.43;3.53;;;;;;;26.25;46.47;99853.31;5103564;28;20398;-87
2022/05/12 01:25:23;;;;;;;4.28;3.08;;;;;;;26.24;46.52;99848.94;5085208;28;20039;-87
2022/05/12 01:27:48;;;;;;;5.28;3.65;;;;;;;26.23;46.46;99844.56;5101755;28;20027;-88
2022/05/12 01:30:17;;;;;;;4.32;3.17;;;;;;;26.24;46.54;99840.91;5086189;28;20038;-88
2022/05/12 01:32:44;;;;;;;4.60;3.10;;;;;;;26.22;46.59;99839.28;5105397;28;20036;-88
2022/05/12 01:35:10;;;;;;;5.18;3.72;;;;;;;26.23;46.64;99843.69;5083289;28;20024;-87
2022/05/12 01:37:42;;;;;;;4.10;3.00;;;;;;;26.22;46.83;99833.94;5090352;28;20016;-89
2022/05/12 01:40:09;;;;;;;4.30;3.35;;;;;;;26.21;46.81;99832.25;5090726;28;20027;-89
2022/05/12 01:42:34;;;;;;;4.55;3.35;;;;;;;26.20;46.67;99826.03;5089946;28;20105;-87
2022/05/12 01:45:00;;;;;;;4.18;3.30;;;;;;;26.19;46.50;99821.66;5081599;28;20036;-87
2022/05/12 01:47:25;;;;;;;4.75;3.67;;;;;;;26.19;46.88;99818.97;5077718;28;20059;-85
2022/05/12 01:49:51;;;;;;;5.30;3.95;;;;;;;26.19;46.76;99829.69;5095419;28;20034;-85
2022/05/12 01:52:16;;;;;;;4.28;3.53;;;;;;;26.18;46.91;99833.31;5078300;28;20042;-86
2022/05/12 01:54:42;;;;;;;4.90;3.47;;;;;;;26.18;46.91;99827.97;5078359;28;20043;-88
2022/05/12 01:57:08;;;;;;;6.03;4.10;;;;;;;26.16;46.53;99835.28;5080232;28;20093;-87
2022/05/12 01:59:34;;;;;;;5.20;3.92;;;;;;;26.16;46.63;99829.94;5080408;28;20032;-87
2022/05/12 02:02:00;;;;;;;4.72;3.17;;;;;;;26.15;46.72;99830.91;5087620;28;20085;-87
2022/05/12 02:04:25;;;;;;;4.10;2.90;;;;;;;26.14;46.97;99831.84;5086348;28;20024;-87
2022/05/12 02:06:51;;;;;;;4.63;3.33;;;;;;;26.13;46.58;99828.34;5080753;28;20028;-87
2022/05/12 02:09:18;;;;;;;4.22;3.20;;;;;;;26.12;46.61;99839.16;5079508;28;20076;-88
2022/05/12 02:11:44;;;;;;;5.30;3.65;;;;;;;26.12;46.67;99828.47;5080933;28;20043;-86
2022/05/12 02:14:09;;;;;;;4.55;3.50;;;;;;;26.12;46.88;99828.47;5078913;28;20036;-86
2022/05/12 02:16:35;;;;;;;5.13;3.20;;;;;;;26.10;46.86;99828.56;5077840;28;20030;-86
2022/05/12 02:19:04;;;;;;;4.72;3.35;;;;;;;26.10;46.74;99825.06;5078567;28;20048;-86
2022/05/12 02:21:30;;;;;;;4.22;3.10;;;;;;;26.08;46.70;99824.31;5080010;28;20032;-87
2022/05/12 02:23:55;;;;;;;4.63;3.42;;;;;;;26.07;46.81;99835.97;5082878;28;20024;-87
2022/05/12 02:26:21;;;;;;;5.05;3.53;;;;;;;26.06;46.70;99834.28;5082184;28;20110;-87
2022/05/12 02:28:47;;;;;;;4.47;3.10;;;;;;;26.06;46.70;99835.16;5083132;28;20028;-87
2022/05/12 02:31:13;;;;;;;4.75;3.13;;;;;;;26.07;46.70;99830.63;5083603;28;20040;-85
2022/05/12 02:33:39;;;;;;;4.43;3.33;;;;;;;26.04;46.97;99831.72;5078847;28;20354;-87
2022/05/12 02:36:05;;;;;;;4.65;3.30;;;;;;;26.06;47.06;99834.28;5079630;28;20097;-87
2022/05/12 02:38:31;;;;;;;4.68;3.00;;;;;;;26.04;46.92;99831.72;5096018;28;20030;-86
2022/05/12 02:40:56;;;;;;;3.92;3.03;;;;;;;26.04;46.64;99830.88;5078298;28;20016;-87
2022/05/12 02:43:24;;;;;;;3.88;2.92;;;;;;;26.01;46.79;99822.09;5080756;28;20024;-88
2022/05/12 02:45:52;;;;;;;4.85;3.10;;;;;;;26.04;46.69;99825.53;5080003;28;20024;-86
2022/05/12 02:48:19;;;;;;;4.68;3.05;;;;;;;25.98;46.59;99822.34;5098035;28;20423;-87
2022/05/12 02:50:45;;;;;;;3.88;3.00;;;;;;;25.98;46.92;99813.47;5079273;28;20015;-88
2022/05/12 02:53:11;;;;;;;5.30;2.83;;;;;;;25.96;46.79;99813.59;5078328;28;20172;-87
2022/05/12 02:55:36;;;;;;;4.28;3.10;;;;;;;25.96;46.76;99810.91;5078232;28;20027;-87
2022/05/12 02:58:02;;;;;;;4.07;3.00;;;;;;;25.98;46.77;99817.00;5078341;28;20403;-86
2022/05/12 03:00:31;;;;;;;4.55;3.03;;;;;;;25.97;46.91;99814.44;5078193;28;20035;-87
2022/05/12 03:02:57;;;;;;;4.35;3.00;;;;;;;25.94;47.04;99810.19;5078042;28;20035;-85
2022/05/12 03:05:23;;;;;;;4.30;3.03;;;;;;;25.95;46.93;99814.56;5077782;28;20023;-86
2022/05/12 03:07:48;;;;;;;3.33;2.60;;;;;;;25.96;46.98;99816.25;5095047;28;20088;-85
2022/05/12 03:10:14;;;;;;;3.83;2.92;;;;;;;25.96;46.79;99813.59;5077730;28;20024;-86
2022/05/12 03:12:41;;;;;;;4.90;3.38;;;;;;;25.94;46.99;99814.66;5081583;28;20047;-88
2022/05/12 03:15:07;;;;;;;3.78;2.83;;;;;;;25.93;46.75;99813.84;5099337;28;20034;-86
2022/05/12 03:17:34;;;;;;;3.95;2.88;;;;;;;25.94;46.98;99804.84;5080327;28;20073;-87
2022/05/12 03:19:59;;;;;;;3.78;2.78;;;;;;;25.92;46.83;99801.44;5080362;28;20461;-88
2022/05/12 03:22:25;;;;;;;4.75;3.40;;;;;;;25.91;46.70;99794.38;5080901;28;20039;-86
2022/05/12 03:24:50;;;;;;;5.03;3.00;;;;;;;25.91;46.69;99797.03;5080725;28;20031;-87
2022/05/12 03:27:16;;;;;;;4.03;3.00;;;;;;;25.92;46.83;99798.78;5081299;28;20020;-86
2022/05/12 03:29:42;;;;;;;4.68;2.92;;;;;;;25.92;46.89;99796.09;5082032;28;20039;-86
2022/05/12 03:32:10;;;;;;;4.28;3.03;;;;;;;25.89;46.92;99796.31;5082222;28;20065;-86
2022/05/12 03:34:38;;;;;;;4.25;3.13;;;;;;;25.90;46.85;99794.50;5081432;28;20458;-86
2022/05/12 03:37:11;;;;;;;4.50;3.05;;;;;;;25.86;46.71;99789.38;5081283;28;20110;-86
2022/05/12 03:39:38;;;;;;;4.20;3.53;;;;;;;25.85;47.07;99793.03;5098642;28;20157;-86
2022/05/12 03:42:06;;;;;;;4.40;3.28;;;;;;;25.86;46.90;99791.22;5081235;28;20485;-87
2022/05/12 03:44:49;;;;;;;4.05;2.92;;;;;;;25.86;46.88;99784.03;5099123;28;20016;-88
2022/05/12 03:47:29;;;;;;;4.85;3.20;;;;;;;25.88;47.05;99781.25;5081749;28;21908;-88
2022/05/12 03:50:00;;;;;;;3.63;2.55;;;;;;;25.83;47.18;99776.28;5081760;28;20027;-87
2022/05/12 03:52:25;;;;;;;4.82;3.20;;;;;;;25.84;47.00;99766.41;5083369;28;20028;-89
2022/05/12 03:54:51;;;;;;;3.67;2.63;;;;;;;25.85;47.01;99779.66;5082880;28;20038;-88
2022/05/12 03:57:18;;;;;;;4.25;2.90;;;;;;;25.85;46.94;99778.81;5082603;28;20035;-86
2022/05/12 03:59:45;;;;;;;4.05;3.17;;;;;;;25.83;46.86;99776.28;5080207;28;20032;-87
2022/05/12 04:02:14;;;;;;;4.13;2.95;;;;;;;25.83;47.07;99772.72;5080359;28;20035;-88
2022/05/12 04:04:41;;;;;;;3.60;2.58;;;;;;;25.82;46.89;99779.06;5080515;28;20511;-86
2022/05/12 04:07:07;;;;;;;3.95;3.00;;;;;;;25.80;47.07;99781.00;5081284;28;20054;-87
2022/05/12 04:09:33;;;;;;;3.92;2.83;;;;;;;25.80;47.04;99770.31;5099949;28;20412;-89
2022/05/12 04:11:59;;;;;;;3.90;3.10;;;;;;;25.79;47.01;99768.59;5084889;28;20095;-87
2022/05/12 04:14:24;;;;;;;3.83;2.97;;;;;;;25.78;46.98;99767.75;5081133;28;20031;-87
2022/05/12 04:16:50;;;;;;;4.45;3.05;;;;;;;25.77;47.11;99771.41;5102291;28;20035;-87
2022/05/12 04:19:15;;;;;;;3.63;2.67;;;;;;;25.76;46.96;99768.84;5089515;28;20089;-87
2022/05/12 04:21:41;;;;;;;3.97;2.67;;;;;;;25.76;46.87;99774.19;5105743;28;20024;-88
2022/05/12 04:24:08;;;;;;;4.45;2.90;;;;;;;25.74;46.79;99768.94;5082348;28;20027;-86
2022/05/12 04:26:36;;;;;;;4.22;3.13;;;;;;;25.74;47.04;99755.59;5081021;28;20032;-85
2022/05/12 04:29:02;;;;;;;3.80;3.03;;;;;;;25.70;46.82;99749.63;5082242;28;20043;-87
2022/05/12 04:31:28;;;;;;;3.80;2.58;;;;;;;25.71;46.77;99737.97;5081721;28;20092;-86
2022/05/12 04:36:38;;;;;;;3.90;2.97;;;;;;;25.68;46.90;99740.88;5098551;28;20046;-87
2022/05/12 04:39:05;;;;;;;4.40;3.28;;;;;;;25.65;46.80;99740.28;5080482;28;20103;-88
2022/05/12 04:41:31;;;;;;;4.13;2.80;;;;;;;25.63;46.91;99748.41;5099099;28;20024;-88
2022/05/12 04:43:58;;;;;;;4.50;3.17;;;;;;;25.63;46.83;99769.78;5081335;28;20081;-87
2022/05/12 04:46:25;;;;;;;3.75;2.80;;;;;;;25.62;46.96;99768.09;5081656;28;20055;-86
2022/05/12 04:48:51;;;;;;;4.00;3.03;;;;;;;25.61;46.82;99761.00;5080274;28;20031;-88
2022/05/12 04:51:17;;;;;;;4.13;2.72;;;;;;;25.59;46.96;99778.97;5079896;28;20028;-85
2022/05/12 04:53:43;;;;;;;4.82;3.17;;;;;;;25.61;46.81;99793.06;5078814;28;20032;-85
2022/05/12 04:56:09;;;;;;;3.45;2.63;;;;;;;25.61;46.70;99793.06;5078542;28;20035;-85
2022/05/12 04:58:34;;;;;;;4.70;2.90;;;;;;;25.60;46.87;99813.63;5079133;28;20052;-84
2022/05/12 05:01:00;;;;;;;4.40;3.42;;;;;;;25.59;47.08;99808.38;5079655;28;20120;-85
2022/05/12 05:03:26;;;;;;;3.97;3.05;;;;;;;25.60;46.94;99799.38;5082893;28;20029;-86
2022/05/12 05:05:51;;;;;;;4.43;3.28;;;;;;;25.59;47.15;99803.91;5082873;28;20093;-84
2022/05/12 05:08:20;;;;;;;3.95;3.25;;;;;;;25.59;47.01;99797.69;5078698;28;20074;-84
2022/05/12 05:10:48;;;;;;;6.45;3.30;;;;;;;25.59;47.19;99790.53;5078743;28;20442;-86
2022/05/12 05:13:14;;;;;;;5.03;3.33;;;;;;;25.58;47.08;99787.97;5078406;28;20107;-86
2022/05/12 05:15:40;;;;;;;4.18;3.08;;;;;;;25.56;47.02;99784.56;5101415;28;20023;-88
2022/05/12 05:18:10;;;;;;;3.95;3.20;;;;;;;25.54;47.03;99783.81;5080124;28;20023;-87
2022/05/12 05:20:36;;;;;;;4.50;3.13;;;;;;;25.53;46.95;99779.41;5079645;28;20052;-87
2022/05/12 05:23:02;;;;;;;4.55;3.10;;;;;;;25.51;46.79;99792.06;5080192;28;20071;-86
2022/05/12 05:25:27;;;;;;;5.78;3.38;;;;;;;25.51;46.86;99802.75;5079968;28;20483;-85
2022/05/12 05:27:55;;;;;;;4.47;3.03;;;;;;;25.47;46.87;99802.94;5078529;28;20036;-84
2022/05/12 05:30:23;;;;;;;3.78;2.80;;;;;;;25.50;47.13;99806.34;5096602;28;20408;-85
2022/05/12 05:32:48;;;;;;;5.05;3.33;;;;;;;25.50;47.10;99817.03;5081153;28;20020;-89
2022/05/12 05:35:14;;;;;;;4.18;3.00;;;;;;;25.48;47.42;99810.00;5080886;28;20457;-85
2022/05/12 05:37:42;;;;;;;4.97;3.40;;;;;;;25.50;47.28;99815.22;5078667;28;20035;-86
2022/05/12 05:40:09;;;;;;;4.65;3.47;;;;;;;25.50;47.24;99814.38;5096371;28;20035;-85
2022/05/12 05:42:35;;;;;;;4.47;3.45;;;;;;;25.46;47.35;99809.28;5079475;28;20032;-86
2022/05/12 05:45:08;;;;;;;4.93;3.40;;;;;;;25.47;47.28;99810.13;5097877;28;20445;-86
2022/05/12 05:47:34;;;;;;;6.45;3.33;;;;;;;25.47;47.38;99818.97;5078023;28;20058;-86
2022/05/12 05:50:00;;;;;;;4.90;3.50;;;;;;;25.49;47.91;99821.53;5079069;28;20020;-86
2022/05/12 05:55:10;;;;;;;5.25;3.53;;;;;;;25.46;47.88;99822.63;5096395;28;20046;-84
2022/05/12 05:57:36;;;;;;;4.57;3.53;;;;;;;25.47;47.89;99824.31;5078512;28;20020;-85
2022/05/12 06:00:05;;;;;;;6.80;3.30;;;;;;;25.48;48.01;99827.88;5096431;28;20059;-85
2022/05/12 06:02:34;;;;;;;4.68;3.53;;;;;;;25.47;47.93;99829.66;5080156;28;20034;-86
2022/05/12 06:05:00;;;;;;;6.18;3.30;;;;;;;25.45;47.60;99826.28;5098100;28;20423;-87
2022/05/12 06:07:26;;;;;;;6.30;3.80;;;;;;;25.46;47.74;99825.28;5080583;28;20024;-88
2022/05/12 06:09:52;;;;;;;5.78;3.92;;;;;;;25.46;47.74;99822.63;5098688;28;20028;-89
2022/05/12 06:12:18;;;;;;;6.70;3.60;;;;;;;25.44;47.83;99819.22;5082961;28;20035;-89
2022/05/12 06:14:44;;;;;;;5.72;3.70;;;;;;;25.43;47.59;99819.34;5086514;28;20032;-90
2022/05/12 06:17:10;;;;;;;5.10;3.55;;;;;;;25.41;47.75;99824.78;5087382;28;20051;-91
2022/05/12 06:19:36;;;;;;;6.63;3.85;;;;;;;25.40;47.60;99827.56;5089990;28;20039;-90
2022/05/12 06:22:02;;;;;;;7.88;4.32;;;;;;;25.37;47.67;99825.13;5083755;28;20034;-89
2022/05/12 06:24:27;;;;;;;6.72;3.95;;;;;;;25.40;47.61;99823.09;5081155;28;20052;-86
2022/05/12 06:26:53;;;;;;;7.03;3.92;;;;;;;25.38;47.43;99819.69;5096160;28;20495;-85
2022/05/12 06:29:20;;;;;;;7.15;4.30;;;;;;;25.37;47.79;99815.28;5079402;28;20031;-87
2022/05/12 06:31:47;;;;;;;7.88;4.22;;;;;;;25.35;47.74;99819.91;5082323;28;20039;-90
2022/05/12 06:34:13;;;;;;;5.97;4.53;;;;;;;25.35;47.53;99814.56;5084255;28;20039;-87
2022/05/12 06:36:39;;;;;;;9.70;4.60;;;;;;;25.35;47.59;99814.56;5080818;28;20044;-83
2022/05/12 06:39:05;;;;;;;8.75;4.82;;;;;;;25.36;47.64;99818.09;5079742;28;20062;-83
2022/05/12 06:41:32;;;;;;;7.55;5.03;;;;;;;25.33;48.04;99812.00;5078153;28;20043;-83
2022/05/12 06:43:58;;;;;;;8.10;4.57;;;;;;;25.35;48.34;99811.88;5078949;28;20024;-84
2022/05/12 06:46:26;;;;;;;7.38;4.38;;;;;;;25.36;48.44;99810.91;5082032;28;20056;-82
2022/05/12 06:48:54;;;;;;;9.52;5.18;;;;;;;25.34;48.41;99813.69;5082892;28;20028;-86
2022/05/12 06:51:20;;;;;;;8.57;5.70;;;;;;;25.39;48.25;99810.69;5082563;28;20028;-83
2022/05/12 06:53:46;;;;;;;7.90;4.45;;;;;;;25.37;48.09;99817.94;5100065;28;20402;-81
2022/05/12 06:56:19;;;;;;;10.43;4.60;;;;;;;25.38;48.06;99819.69;5082762;28;20031;-83
2022/05/12 06:58:44;;;;;;;7.47;4.38;;;;;;;25.39;48.17;99809.84;5102202;28;20035;-85
2022/05/12 07:01:11;;;;;;;8.30;4.80;;;;;;;25.36;47.92;99813.59;5082776;28;20365;-85
2022/05/12 07:03:37;;;;;;;10.93;4.72;;;;;;;25.36;48.08;99808.25;5083168;28;20023;-83
2022/05/12 07:06:03;;;;;;;8.45;4.75;;;;;;;25.37;48.14;99812.63;5101099;28;20035;-84
2022/05/12 07:08:29;;;;;;;7.75;4.75;;;;;;;25.35;48.12;99814.56;5100114;28;20028;-81
2022/05/12 07:11:01;;;;;;;7.53;4.10;;;;;;;25.35;47.87;99809.22;5082167;28;20032;-85
2022/05/12 07:13:26;;;;;;;7.82;4.65;;;;;;;25.35;47.69;99801.19;5084817;28;20028;-83
2022/05/12 07:15:52;;;;;;;9.13;4.50;;;;;;;25.37;47.86;99803.75;5083147;28;20476;-84
2022/05/12 07:18:19;;;;;;;9.27;4.82;;;;;;;25.33;47.63;99801.31;5101748;28;20444;-84
2022/05/12 07:28:57;;;;;;;8.57;5.18;;;;;;;25.33;47.50;99800.47;5099412;28;20043;-83
2022/05/12 07:31:23;;;;;;;8.75;4.93;;;;;;;25.29;47.56;99805.19;5081398;28;20055;-84
2022/05/12 07:33:49;;;;;;;8.73;4.38;;;;;;;25.32;47.47;99807.63;5100682;28;20012;-83
2022/05/12 07:36:29;;;;;;;7.75;4.60;;;;;;;25.30;47.48;99811.38;5084815;28;20177;-83
2022/05/12 07:38:56;;;;;;;8.07;4.95;;;;;;;25.28;47.39;99797.28;5082062;28;20044;-82
2022/05/12 07:41:23;;;;;;;8.85;4.75;;;;;;;25.30;47.50;99806.03;5083019;28;20030;-83
2022/05/12 07:43:48;;;;;;;8.50;4.43;;;;;;;25.30;47.27;99800.69;5082285;28;20055;-83
2022/05/12 07:46:17;;;;;;;6.57;4.50;;;;;;;25.28;47.38;99797.28;5082439;28;20052;-83
2022/05/12 07:48:46;;;;;;;7.55;4.10;;;;;;;25.31;47.28;99797.03;5082446;28;20032;-83
2022/05/12 07:51:12;;;;;;;6.97;4.40;;;;;;;25.31;47.40;99792.56;5082020;28;20019;-83
2022/05/12 07:53:38;;;;;;;7.28;4.20;;;;;;;25.32;47.32;99798.75;5080551;28;20039;-81
2022/05/12 07:56:05;;;;;;;7.50;4.32;;;;;;;25.34;47.31;99799.50;5079607;28;20432;-85
2022/05/12 07:58:32;;;;;;;6.95;4.57;;;;;;;25.31;47.33;99802.38;5080591;28;20059;-85
2022/05/12 08:00:57;;;;;;;8.13;3.95;;;;;;;25.30;47.30;99798.03;5080215;28;20036;-86
2022/05/12 08:03:25;;;;;;;8.27;4.20;;;;;;;25.29;47.30;99797.19;5079401;28;20046;-82
2022/05/12 08:05:51;;;;;;;7.15;4.30;;;;;;;25.31;47.15;99797.03;5079432;28;20028;-82
2022/05/12 08:08:16;;;;;;;8.80;4.03;;;;;;;25.30;47.05;99796.22;5079691;28;20095;-83
2022/05/12 08:10:42;;;;;;;6.00;3.95;;;;;;;25.29;47.06;99804.34;5079504;28;20039;-84
2022/05/12 08:13:14;;;;;;;5.78;3.60;;;;;;;25.30;47.11;99798.88;5079572;28;20024;-83
2022/05/12 08:15:51;;;;;;;10.32;4.10;;;;;;;25.30;46.94;99798.03;5079240;28;20475;-84
2022/05/12 08:18:19;;;;;;;8.10;4.72;;;;;;;25.29;46.99;99790.97;5079568;28;20024;-83
2022/05/12 08:20:45;;;;;;;6.85;4.40;;;;;;;25.28;47.18;99792.78;5097942;28;20039;-84
2022/05/12 08:23:11;;;;;;;7.60;4.38;;;;;;;25.28;46.92;99792.78;5080005;28;20028;-84
2022/05/12 08:25:38;;;;;;;7.47;4.03;;;;;;;25.28;47.14;99794.63;5098689;28;20028;-84
2022/05/12 08:28:04;;;;;;;6.72;4.13;;;;;;;25.27;47.37;99790.25;5081572;28;20031;-84
2022/05/12 08:30:31;;;;;;;6.70;3.97;;;;;;;25.29;46.98;99793.66;5099525;28;20118;-84
2022/05/12 08:32:58;;;;;;;8.05;4.28;;;;;;;25.27;47.05;99790.25;5083498;28;20020;-84
2022/05/12 08:35:24;;;;;;;6.75;4.10;;;;;;;25.25;47.02;99793.03;5100711;28;20039;-85
2022/05/12 08:37:49;;;;;;;6.65;4.05;;;;;;;25.26;46.89;99793.84;5083281;28;20020;-85
2022/05/12 08:40:25;;;;;;;7.75;3.88;;;;;;;25.30;47.18;99795.34;5082537;28;20031;-83
2022/05/12 08:42:51;;;;;;;6.80;4.05;;;;;;;25.28;46.92;99790.13;5080985;28;20028;-82
2022/05/12 08:45:18;;;;;;;7.32;3.42;;;;;;;25.30;46.88;99784.66;5079559;28;20051;-82
2022/05/12 08:47:48;;;;;;;7.47;3.42;;;;;;;25.30;46.99;99780.19;5078907;28;20044;-83
2022/05/12 08:50:29;;;;;;;6.15;3.80;;;;;;;25.29;46.91;99780.28;5079933;28;20028;-84
2022/05/12 08:53:15;;;;;;;6.57;3.80;;;;;;;25.29;46.84;99783.84;5096796;28;20020;-83
2022/05/12 08:55:53;;;;;;;7.10;3.70;;;;;;;25.32;46.86;99788.06;5078670;28;20024;-84
2022/05/12 08:58:33;;;;;;;5.82;3.95;;;;;;;25.28;47.01;99789.28;5078588;28;20481;-83
2022/05/12 09:01:13;;;;;;;7.10;4.10;;;;;;;25.28;46.98;99782.09;5078697;28;20113;-84
2022/05/12 09:03:52;;;;;;;7.38;3.90;;;;;;;25.29;46.80;99774.94;5096332;28;20456;-83
2022/05/12 09:06:21;;;;;;;8.05;3.97;;;;;;;25.30;46.93;99779.31;5096645;28;20039;-85
2022/05/12 09:09:02;;;;;;;7.25;3.42;;;;;;;25.29;46.94;99777.63;5077411;28;20085;-82
2022/05/12 09:11:51;;;;;;;6.47;3.63;;;;;;;25.29;46.72;99772.28;5078386;28;20031;-82
2022/05/12 09:14:34;;;;;;;7.15;4.00;;;;;;;25.32;46.66;99774.72;5078229;28;20127;-82
2022/05/12 09:17:01;;;;;;;7.28;4.03;;;;;;;25.29;46.55;99773.16;5096415;28;20470;-83
2022/05/12 09:19:28;;;;;;;6.82;3.92;;;;;;;25.29;46.87;99777.63;5078072;28;20051;-82
2022/05/12 09:21:54;;;;;;;6.55;3.58;;;;;;;25.31;46.72;99773.88;5096533;28;20031;-82
2022/05/12 09:24:20;;;;;;;6.75;3.40;;;;;;;25.32;46.78;99772.03;5079135;28;20028;-84
2022/05/12 09:26:51;;;;;;;7.97;3.60;;;;;;;25.34;46.51;99776.28;5080514;28;20024;-83
2022/05/12 09:29:23;;;;;;;5.85;3.33;;;;;;;25.36;46.49;99776.19;5078493;28;20024;-85
2022/05/12 09:32:15;;;;;;;8.30;3.78;;;;;;;25.36;46.71;99778.03;5078108;28;20024;-83
2022/05/12 09:34:42;;;;;;;5.28;3.35;;;;;;;25.37;46.52;99772.53;5078481;28;20024;-83
2022/05/12 09:37:16;;;;;;;5.20;3.28;;;;;;;25.38;46.68;99778.75;5095300;28;20028;-83
2022/05/12 09:39:50;;;;;;;7.07;3.67;;;;;;;25.38;46.57;99782.28;5077862;28;20116;-84
2022/05/12 09:42:28;;;;;;;9.23;3.50;;;;;;;25.38;46.85;99784.97;5077965;28;20036;-83
2022/05/12 09:45:05;;;;;;;5.40;3.10;;;;;;;25.39;46.78;99789.34;5078107;28;20032;-84
2022/05/12 09:47:32;;;;;;;6.82;3.60;;;;;;;25.41;46.65;99786.53;5077644;28;20048;-83
2022/05/12 09:50:28;;;;;;;6.57;3.67;;;;;;;25.41;46.66;99782.03;5077943;28;20019;-83
2022/05/12 09:52:53;;;;;;;7.55;3.60;;;;;;;25.43;46.58;99785.44;5078931;28;20039;-82
2022/05/12 09:55:24;;;;;;;6.95;3.70;;;;;;;25.43;46.55;99780.09;5077418;28;20032;-82
2022/05/12 09:57:58;;;;;;;8.50;3.88;;;;;;;25.45;46.54;99782.66;5077276;28;20028;-82
2022/05/12 10:00:38;;;;;;;7.40;3.55;;;;;;;25.46;46.80;99771.88;5077488;28;20118;-84
2022/05/12 10:09:09;;;;;;;6.83;3.80;;;;;;;25.49;46.16;99762.78;5094818;28;20527;-84
2022/05/12 10:12:15;;;;;;;8.95;3.55;;;;;;;25.50;46.50;99758.25;5077356;28;20309;-85
2022/05/12 10:14:40;;;;;;;6.97;3.58;;;;;;;25.53;46.75;99752.69;5076860;28;20036;-83
2022/05/12 10:17:28;;;;;;;6.70;3.50;;;;;;;25.53;46.53;99752.69;5077615;28;20183;-84
2022/05/12 10:19:55;;;;;;;7.43;3.78;;;;;;;25.55;46.41;99745.44;5095279;28;20035;-83
2022/05/12 10:22:47;;;;;;;8.07;3.47;;;;;;;25.56;46.38;99741.81;5077667;28;20097;-82
2022/05/12 10:25:37;;;;;;;5.85;3.45;;;;;;;25.56;46.20;99748.00;5059258;28;20115;-83
2022/05/12 10:28:11;;;;;;;5.85;3.20;;;;;;;25.56;46.26;99747.16;5077383;28;20032;-83
2022/05/12 10:30:51;;;;;;;8.35;3.53;;;;;;;25.58;46.17;99739.88;5077287;28;20032;-83
2022/05/12 10:33:29;;;;;;;6.40;3.22;;;;;;;25.59;46.23;99738.91;5077322;28;20119;-82
2022/05/12 10:36:23;;;;;;;7.82;3.35;;;;;;;25.59;46.23;99737.09;5095546;28;20055;-83
2022/05/12 10:39:22;;;;;;;7.68;3.47;;;;;;;25.59;46.17;99737.09;5079260;28;20024;-84
2022/05/12 10:42:12;;;;;;;8.48;3.60;;;;;;;25.61;46.20;99731.63;5077926;28;20039;-85
2022/05/12 10:45:07;;;;;;;5.10;3.08;;;;;;;25.62;46.55;99725.31;5079306;28;20471;-86
2022/05/12 10:47:57;;;;;;;9.27;3.65;;;;;;;25.63;46.25;99729.69;5096841;28;20189;-83
2022/05/12 10:50:44;;;;;;;6.60;3.63;;;;;;;25.64;46.22;99722.50;5078798;28;20081;-84
2022/05/12 10:53:37;;;;;;;6.20;3.58;;;;;;;25.64;46.40;99722.50;5080810;28;20454;-84
2022/05/12 10:56:53;;;;;;;5.43;3.10;;;;;;;25.66;46.41;99725.94;5081354;28;20028;-86
2022/05/12 10:59:30;;;;;;;6.93;3.30;;;;;;;25.66;46.38;99718.75;4996863;28;20026;-84
2022/05/12 11:02:08;;;;;;;9.35;3.78;;;;;;;25.66;46.42;99716.09;5083842;28;20044;-82
2022/05/12 11:04:59;;;;;;;6.53;3.42;;;;;;;25.68;46.39;99708.81;5095223;28;20103;-84
2022/05/12 11:07:38;;;;;;;6.32;3.33;;;;;;;25.70;46.27;99706.88;5076702;28;20043;-82
2022/05/12 11:10:32;;;;;;;6.93;4.00;;;;;;;25.71;46.41;99708.56;5094947;28;20085;-84
2022/05/12 11:13:10;;;;;;;7.15;3.60;;;;;;;25.73;46.33;99703.09;5076628;28;20115;-83
2022/05/12 11:16:11;;;;;;;8.90;4.32;;;;;;;25.76;46.21;99704.69;5096358;28;20035;-83
2022/05/12 11:19:11;;;;;;;8.50;3.95;;;;;;;25.77;46.11;99706.38;5025021;28;20499;-83
2022/05/12 11:21:56;;;;;;;9.40;3.88;;;;;;;25.77;46.29;99695.69;5076921;28;20024;-83
2022/05/12 11:24:59;;;;;;;7.93;4.30;;;;;;;25.78;46.46;99692.06;5094723;28;20075;-82
2022/05/12 11:27:50;;;;;;;7.78;3.92;;;;;;;25.80;46.31;99687.47;5059619;28;20130;-84
2022/05/12 11:30:18;;;;;;;8.35;4.15;;;;;;;25.81;46.38;99686.47;5094811;28;20028;-82
2022/05/12 11:32:44;;;;;;;8.43;4.00;;;;;;;25.81;46.27;99687.31;5079227;28;20419;-83
2022/05/12 11:35:16;;;;;;;7.78;3.80;;;;;;;25.84;46.37;99680.88;5080229;28;20032;-83
2022/05/12 11:37:41;;;;;;;7.68;4.28;;;;;;;25.85;46.19;99671.88;5098289;28;20020;-82
2022/05/12 11:40:30;;;;;;;7.47;3.80;;;;;;;25.86;46.12;99662.91;5080093;28;20468;-82
2022/05/12 11:45:49;;;;;;;6.82;3.63;;;;;;;25.90;46.13;99669.69;5097732;28;20067;-83
2022/05/12 11:48:53;;;;;;;6.28;3.50;;;;;;;25.91;46.14;99659.88;5079990;28;20124;-82
2022/05/12 11:51:22;;;;;;;7.18;4.07;;;;;;;25.91;46.07;99660.69;5080805;28;20034;-85
2022/05/12 11:53:55;;;;;;;6.05;3.90;;;;;;;25.93;46.18;99653.44;5082944;28;20035;-83
2022/05/12 11:56:51;;;;;;;6.20;3.35;;;;;;;25.95;46.25;99656.81;5098517;28;20035;-83
2022/05/12 11:59:33;;;;;;;7.28;3.67;;;;;;;25.96;46.10;99642.47;5080809;28;20024;-84
2022/05/12 12:02:23;;;;;;;7.88;3.75;;;;;;;25.97;46.07;99641.53;5079953;28;20532;-84
2022/05/12 12:04:51;;;;;;;6.60;3.97;;;;;;;25.98;46.29;99645.91;5079440;28;20075;-84
2022/05/12 12:07:37;;;;;;;5.68;3.83;;;;;;;26.01;46.23;99639.47;5097907;28;20028;-84
2022/05/12 12:10:23;;;;;;;7.05;3.72;;;;;;;26.01;46.46;99640.28;5079966;28;20024;-83
2022/05/12 12:13:00;;;;;;;;;;;;;;;26.05;46.18;99645.41;5080784;28;20466;-84